sensor_id;sensor_type;location;lat;lon;timestamp;temperature;humidity
1476;DHT22;730;48.870;12.542;2023-02-01T00:02:05;4.60;1.00
1476;DHT22;730;48.870;12.542;2023-02-01T00:04:31;4.60;1.00
1476;DHT22;730;48.870;12.542;2023-02-01T00:06:57;4.60;1.00
1476;DHT22;730;48.870;12.542;2023-02-01T00:09:23;4.60;1.00
1476;DHT22;730;48.870;12.542;2023-02-01T00:11:49;4.60;1.00
1476;DHT22;730;48.870;12.542;2023-02-01T00:14:15;4.60;1.00
1476;DHT22;730;48.870;12.542;2023-02-01T00:16:42;4.60;1.00
1476;DHT22;730;48.870;12.542;2023-02-01T00:19:14;4.60;1.00
1476;DHT22;730;48.870;12.542;2023-02-01T00:21:41;4.60;1.00
1476;DHT22;730;48.870;12.542;2023-02-01T00:24:08;4.60;1.00
1476;DHT22;730;48.870;12.542;2023-02-01T00:26:37;4.60;1.00
1476;DHT22;730;48.870;12.542;2023-02-01T00:29:06;4.60;1.00
1476;DHT22;730;48.870;12.542;2023-02-01T00:31:33;4.70;1.00
1476;DHT22;730;48.870;12.542;2023-02-01T00:33:59;4.70;1.00
1476;DHT22;730;48.870;12.542;2023-02-01T00:36:25;4.70;1.00
1476;DHT22;730;48.870;12.542;2023-02-01T00:38:51;4.70;1.00
1476;DHT22;730;48.870;12.542;2023-02-01T00:41:19;4.70;1.00
1476;DHT22;730;48.870;12.542;2023-02-01T00:43:46;4.70;1.00
1476;DHT22;730;48.870;12.542;2023-02-01T00:46:14;4.70;1.00
1476;DHT22;730;48.870;12.542;2023-02-01T00:48:40;4.70;1.00
1476;DHT22;730;48.870;12.542;2023-02-01T00:51:09;4.70;1.00
1476;DHT22;730;48.870;12.542;2023-02-01T00:53:36;4.60;1.00
1476;DHT22;730;48.870;12.542;2023-02-01T00:56:02;4.70;1.00
1476;DHT22;730;48.870;12.542;2023-02-01T00:58:29;4.70;1.00
1476;DHT22;730;48.870;12.542;2023-02-01T01:01:20;4.70;1.00
1476;DHT22;730;48.870;12.542;2023-02-01T01:03:50;4.70;1.00
1476;DHT22;730;48.870;12.542;2023-02-01T01:06:20;4.70;1.00
1476;DHT22;730;48.870;12.542;2023-02-01T01:08:46;4.70;1.00
1476;DHT22;730;48.870;12.542;2023-02-01T01:11:17;4.70;1.00
1476;DHT22;730;48.870;12.542;2023-02-01T01:13:46;4.70;1.00
1476;DHT22;730;48.870;12.542;2023-02-01T01:16:12;4.70;1.00
1476;DHT22;730;48.870;12.542;2023-02-01T01:18:38;4.80;1.00
1476;DHT22;730;48.870;12.542;2023-02-01T01:21:05;4.70;1.00
1476;DHT22;730;48.870;12.542;2023-02-01T01:23:32;4.80;1.00
1476;DHT22;730;48.870;12.542;2023-02-01T01:25:58;4.80;1.00
1476;DHT22;730;48.870;12.542;2023-02-01T01:28:24;4.80;1.00
1476;DHT22;730;48.870;12.542;2023-02-01T01:30:50;4.90;1.00
1476;DHT22;730;48.870;12.542;2023-02-01T01:33:16;4.80;1.00
1476;DHT22;730;48.870;12.542;2023-02-01T01:35:42;4.80;1.00
1476;DHT22;730;48.870;12.542;2023-02-01T01:38:10;4.80;1.00
1476;DHT22;730;48.870;12.542;2023-02-01T01:40:37;4.90;1.00
1476;DHT22;730;48.870;12.542;2023-02-01T01:43:15;4.80;1.00
1476;DHT22;730;48.870;12.542;2023-02-01T01:45:42;4.80;1.00
1476;DHT22;730;48.870;12.542;2023-02-01T01:50:44;4.90;1.00
1476;DHT22;730;48.870;12.542;2023-02-01T01:53:18;4.90;1.00
1476;DHT22;730;48.870;12.542;2023-02-01T01:55:46;4.90;1.00
1476;DHT22;730;48.870;12.542;2023-02-01T01:58:17;4.90;1.00
1476;DHT22;730;48.870;12.542;2023-02-01T02:00:45;4.90;1.00
1476;DHT22;730;48.870;12.542;2023-02-01T02:03:23;5.00;1.00
1476;DHT22;730;48.870;12.542;2023-02-01T02:05:52;5.00;1.00
1476;DHT22;730;48.870;12.542;2023-02-01T02:08:20;5.00;1.00
1476;DHT22;730;48.870;12.542;2023-02-01T02:10:50;5.00;1.00
1476;DHT22;730;48.870;12.542;2023-02-01T02:13:35;5.00;1.00
1476;DHT22;730;48.870;12.542;2023-02-01T02:16:19;5.00;1.00
1476;DHT22;730;48.870;12.542;2023-02-01T02:22:22;5.00;1.00
1476;DHT22;730;48.870;12.542;2023-02-01T02:25:22;5.00;1.00
1476;DHT22;730;48.870;12.542;2023-02-01T02:28:05;5.00;1.00
1476;DHT22;730;48.870;12.542;2023-02-01T02:38:55;5.00;1.00
1476;DHT22;730;48.870;12.542;2023-02-01T02:41:43;4.90;1.00
1476;DHT22;730;48.870;12.542;2023-02-01T02:44:47;4.90;1.40
1476;DHT22;730;48.870;12.542;2023-02-01T02:50:12;4.90;1.30
1476;DHT22;730;48.870;12.542;2023-02-01T02:56:26;4.90;1.60
1476;DHT22;730;48.870;12.542;2023-02-01T02:59:16;5.00;1.10
1476;DHT22;730;48.870;12.542;2023-02-01T03:02:01;4.90;1.20
1476;DHT22;730;48.870;12.542;2023-02-01T03:04:46;4.90;1.40
1476;DHT22;730;48.870;12.542;2023-02-01T03:10:34;4.80;1.80
1476;DHT22;730;48.870;12.542;2023-02-01T03:13:16;4.90;1.90
1476;DHT22;730;48.870;12.542;2023-02-01T03:15:53;4.90;1.80
1476;DHT22;730;48.870;12.542;2023-02-01T03:21:32;4.90;1.90
1476;DHT22;730;48.870;12.542;2023-02-01T03:24:07;4.90;4.20
1476;DHT22;730;48.870;12.542;2023-02-01T03:26:37;4.90;5.00
1476;DHT22;730;48.870;12.542;2023-02-01T03:29:20;4.90;4.90
1476;DHT22;730;48.870;12.542;2023-02-01T03:31:48;4.80;5.10
1476;DHT22;730;48.870;12.542;2023-02-01T03:34:14;4.90;4.90
1476;DHT22;730;48.870;12.542;2023-02-01T03:36:46;4.90;4.80
1476;DHT22;730;48.870;12.542;2023-02-01T03:39:33;4.90;4.60
1476;DHT22;730;48.870;12.542;2023-02-01T03:42:09;4.80;4.20
1476;DHT22;730;48.870;12.542;2023-02-01T03:44:54;4.90;4.10
1476;DHT22;730;48.870;12.542;2023-02-01T03:47:23;4.90;4.10
1476;DHT22;730;48.870;12.542;2023-02-01T03:49:54;4.90;3.70
1476;DHT22;730;48.870;12.542;2023-02-01T03:52:41;4.90;3.60
1476;DHT22;730;48.870;12.542;2023-02-01T03:55:08;4.90;3.30
1476;DHT22;730;48.870;12.542;2023-02-01T03:57:44;5.00;2.70
1476;DHT22;730;48.870;12.542;2023-02-01T04:00:21;5.00;3.40
1476;DHT22;730;48.870;12.542;2023-02-01T04:02:48;5.00;2.40
1476;DHT22;730;48.870;12.542;2023-02-01T04:05:14;5.00;2.20
1476;DHT22;730;48.870;12.542;2023-02-01T04:07:41;5.00;2.30
1476;DHT22;730;48.870;12.542;2023-02-01T04:10:08;5.00;2.20
1476;DHT22;730;48.870;12.542;2023-02-01T04:12:34;5.00;2.00
1476;DHT22;730;48.870;12.542;2023-02-01T04:15:00;5.10;1.70
1476;DHT22;730;48.870;12.542;2023-02-01T04:17:27;5.10;1.90
1476;DHT22;730;48.870;12.542;2023-02-01T04:19:53;5.10;1.30
1476;DHT22;730;48.870;12.542;2023-02-01T04:22:19;5.10;1.70
1476;DHT22;730;48.870;12.542;2023-02-01T04:24:45;5.00;1.20
1476;DHT22;730;48.870;12.542;2023-02-01T04:27:11;5.00;1.10
1476;DHT22;730;48.870;12.542;2023-02-01T04:29:37;5.10;1.10
1476;DHT22;730;48.870;12.542;2023-02-01T04:32:03;5.10;1.00
1476;DHT22;730;48.870;12.542;2023-02-01T04:34:29;5.10;1.00
1476;DHT22;730;48.870;12.542;2023-02-01T04:36:56;5.10;1.10
1476;DHT22;730;48.870;12.542;2023-02-01T04:39:23;5.10;1.10
1476;DHT22;730;48.870;12.542;2023-02-01T04:41:49;5.10;1.00
1476;DHT22;730;48.870;12.542;2023-02-01T04:44:19;5.10;1.00
1476;DHT22;730;48.870;12.542;2023-02-01T04:46:46;5.10;1.00
1476;DHT22;730;48.870;12.542;2023-02-01T04:49:13;5.10;1.00
1476;DHT22;730;48.870;12.542;2023-02-01T04:51:40;5.10;1.00
1476;DHT22;730;48.870;12.542;2023-02-01T04:54:11;5.10;1.00
1476;DHT22;730;48.870;12.542;2023-02-01T04:56:37;5.10;1.00
1476;DHT22;730;48.870;12.542;2023-02-01T04:59:04;5.10;1.00
1476;DHT22;730;48.870;12.542;2023-02-01T05:01:31;5.20;1.00
1476;DHT22;730;48.870;12.542;2023-02-01T05:03:58;5.20;1.00
1476;DHT22;730;48.870;12.542;2023-02-01T05:06:24;5.10;1.00
1476;DHT22;730;48.870;12.542;2023-02-01T05:08:50;5.10;1.00
1476;DHT22;730;48.870;12.542;2023-02-01T05:11:16;5.00;1.00
1476;DHT22;730;48.870;12.542;2023-02-01T05:14:01;5.00;1.00
1476;DHT22;730;48.870;12.542;2023-02-01T05:16:27;5.00;1.00
1476;DHT22;730;48.870;12.542;2023-02-01T05:18:53;5.00;1.00
1476;DHT22;730;48.870;12.542;2023-02-01T05:21:20;5.00;1.00
1476;DHT22;730;48.870;12.542;2023-02-01T05:23:46;5.00;1.00
1476;DHT22;730;48.870;12.542;2023-02-01T05:26:31;5.00;1.00
1476;DHT22;730;48.870;12.542;2023-02-01T05:29:01;5.00;1.00
1476;DHT22;730;48.870;12.542;2023-02-01T05:31:27;5.00;1.00
1476;DHT22;730;48.870;12.542;2023-02-01T05:33:53;5.00;1.00
1476;DHT22;730;48.870;12.542;2023-02-01T05:36:20;5.00;1.00
1476;DHT22;730;48.870;12.542;2023-02-01T05:38:46;5.00;1.00
1476;DHT22;730;48.870;12.542;2023-02-01T05:41:12;5.10;1.00
1476;DHT22;730;48.870;12.542;2023-02-01T05:43:38;5.10;1.00
1476;DHT22;730;48.870;12.542;2023-02-01T05:46:04;5.00;1.00
1476;DHT22;730;48.870;12.542;2023-02-01T05:48:30;5.00;1.00
1476;DHT22;730;48.870;12.542;2023-02-01T05:50:57;5.10;1.00
1476;DHT22;730;48.870;12.542;2023-02-01T05:53:23;5.10;1.00
1476;DHT22;730;48.870;12.542;2023-02-01T05:55:49;5.10;1.00
1476;DHT22;730;48.870;12.542;2023-02-01T05:58:15;5.10;1.00
1476;DHT22;730;48.870;12.542;2023-02-01T06:00:41;5.00;1.00
1476;DHT22;730;48.870;12.542;2023-02-01T06:03:07;5.00;1.00
1476;DHT22;730;48.870;12.542;2023-02-01T06:05:33;5.00;1.00
1476;DHT22;730;48.870;12.542;2023-02-01T06:07:59;5.00;1.00
1476;DHT22;730;48.870;12.542;2023-02-01T06:10:25;5.10;1.00
1476;DHT22;730;48.870;12.542;2023-02-01T06:12:51;5.00;1.00
1476;DHT22;730;48.870;12.542;2023-02-01T06:15:18;5.00;1.00
1476;DHT22;730;48.870;12.542;2023-02-01T06:17:45;5.00;1.00
1476;DHT22;730;48.870;12.542;2023-02-01T06:20:13;5.00;1.00
1476;DHT22;730;48.870;12.542;2023-02-01T06:22:40;5.00;1.00
1476;DHT22;730;48.870;12.542;2023-02-01T06:25:08;5.10;1.00
1476;DHT22;730;48.870;12.542;2023-02-01T06:27:36;5.00;1.00
1476;DHT22;730;48.870;12.542;2023-02-01T06:30:03;5.00;1.00
1476;DHT22;730;48.870;12.542;2023-02-01T06:32:30;5.00;1.00
1476;DHT22;730;48.870;12.542;2023-02-01T06:34:56;5.10;1.00
1476;DHT22;730;48.870;12.542;2023-02-01T06:37:23;5.00;1.00
1476;DHT22;730;48.870;12.542;2023-02-01T06:39:50;5.10;1.00
1476;DHT22;730;48.870;12.542;2023-02-01T06:42:17;5.10;1.00
1476;DHT22;730;48.870;12.542;2023-02-01T06:44:43;5.10;1.00
1476;DHT22;730;48.870;12.542;2023-02-01T06:47:09;5.10;1.00
1476;DHT22;730;48.870;12.542;2023-02-01T06:49:35;5.10;1.00
1476;DHT22;730;48.870;12.542;2023-02-01T06:52:01;5.10;1.00
1476;DHT22;730;48.870;12.542;2023-02-01T06:54:28;5.00;1.00
1476;DHT22;730;48.870;12.542;2023-02-01T06:56:54;5.00;1.00
1476;DHT22;730;48.870;12.542;2023-02-01T06:59:20;5.10;1.00
1476;DHT22;730;48.870;12.542;2023-02-01T07:01:46;5.10;1.00
1476;DHT22;730;48.870;12.542;2023-02-01T07:04:12;5.10;1.00
1476;DHT22;730;48.870;12.542;2023-02-01T07:06:39;5.20;1.00
1476;DHT22;730;48.870;12.542;2023-02-01T07:09:07;5.10;1.00
1476;DHT22;730;48.870;12.542;2023-02-01T07:11:33;5.10;1.00
1476;DHT22;730;48.870;12.542;2023-02-01T07:14:00;5.10;1.00
1476;DHT22;730;48.870;12.542;2023-02-01T07:16:26;5.10;1.00
1476;DHT22;730;48.870;12.542;2023-02-01T07:18:52;5.10;1.00
1476;DHT22;730;48.870;12.542;2023-02-01T07:21:19;5.10;1.00
1476;DHT22;730;48.870;12.542;2023-02-01T07:23:45;5.10;1.00
1476;DHT22;730;48.870;12.542;2023-02-01T07:26:13;5.10;1.00
1476;DHT22;730;48.870;12.542;2023-02-01T07:28:40;5.10;1.00
1476;DHT22;730;48.870;12.542;2023-02-01T07:31:12;5.20;1.00
1476;DHT22;730;48.870;12.542;2023-02-01T07:33:41;5.10;1.00
1476;DHT22;730;48.870;12.542;2023-02-01T07:36:11;5.20;1.00
1476;DHT22;730;48.870;12.542;2023-02-01T07:38:38;5.10;1.00
1476;DHT22;730;48.870;12.542;2023-02-01T07:41:05;5.20;1.00
1476;DHT22;730;48.870;12.542;2023-02-01T07:43:31;5.20;1.00
1476;DHT22;730;48.870;12.542;2023-02-01T07:45:58;5.20;1.00
1476;DHT22;730;48.870;12.542;2023-02-01T07:48:25;5.20;1.00
1476;DHT22;730;48.870;12.542;2023-02-01T07:51:00;5.20;1.00
1476;DHT22;730;48.870;12.542;2023-02-01T07:53:26;5.20;1.00
1476;DHT22;730;48.870;12.542;2023-02-01T07:55:53;5.20;1.00
1476;DHT22;730;48.870;12.542;2023-02-01T07:58:22;5.20;1.00
1476;DHT22;730;48.870;12.542;2023-02-01T08:00:48;5.20;1.00
1476;DHT22;730;48.870;12.542;2023-02-01T08:03:33;5.30;1.00
1476;DHT22;730;48.870;12.542;2023-02-01T08:05:59;5.30;1.40
1476;DHT22;730;48.870;12.542;2023-02-01T08:08:26;5.40;1.30
1476;DHT22;730;48.870;12.542;2023-02-01T08:11:00;5.40;1.60
1476;DHT22;730;48.870;12.542;2023-02-01T08:13:26;5.30;1.80
1476;DHT22;730;48.870;12.542;2023-02-01T08:16:01;5.10;2.00
1476;DHT22;730;48.870;12.542;2023-02-01T08:18:27;4.80;4.30
1476;DHT22;730;48.870;12.542;2023-02-01T08:20:53;4.70;5.50
1476;DHT22;730;48.870;12.542;2023-02-01T08:23:20;4.60;6.80
1476;DHT22;730;48.870;12.542;2023-02-01T08:25:46;4.60;8.00
1476;DHT22;730;48.870;12.542;2023-02-01T08:28:13;4.60;8.90
1476;DHT22;730;48.870;12.542;2023-02-01T08:30:39;4.60;9.10
1476;DHT22;730;48.870;12.542;2023-02-01T08:33:08;4.60;9.40
1476;DHT22;730;48.870;12.542;2023-02-01T08:35:35;4.60;10.00
1476;DHT22;730;48.870;12.542;2023-02-01T08:38:02;4.60;10.30
1476;DHT22;730;48.870;12.542;2023-02-01T08:40:28;4.60;10.70
1476;DHT22;730;48.870;12.542;2023-02-01T08:42:55;4.60;11.00
1476;DHT22;730;48.870;12.542;2023-02-01T08:45:28;4.60;11.10
1476;DHT22;730;48.870;12.542;2023-02-01T08:47:56;4.60;11.20
1476;DHT22;730;48.870;12.542;2023-02-01T08:50:23;4.50;11.10
1476;DHT22;730;48.870;12.542;2023-02-01T08:52:50;4.60;11.20
1476;DHT22;730;48.870;12.542;2023-02-01T08:55:17;4.60;10.50
1476;DHT22;730;48.870;12.542;2023-02-01T08:57:43;4.60;10.60
1476;DHT22;730;48.870;12.542;2023-02-01T09:00:18;4.60;10.70
1476;DHT22;730;48.870;12.542;2023-02-01T09:02:45;4.60;11.20
1476;DHT22;730;48.870;12.542;2023-02-01T09:05:20;4.60;11.00
1476;DHT22;730;48.870;12.542;2023-02-01T09:07:47;4.70;10.70
1476;DHT22;730;48.870;12.542;2023-02-01T09:10:14;4.70;10.70
1476;DHT22;730;48.870;12.542;2023-02-01T09:12:41;4.60;10.60
1476;DHT22;730;48.870;12.542;2023-02-01T09:15:07;4.70;10.80
1476;DHT22;730;48.870;12.542;2023-02-01T09:17:34;4.70;10.70
1476;DHT22;730;48.870;12.542;2023-02-01T09:20:00;4.70;10.50
1476;DHT22;730;48.870;12.542;2023-02-01T09:22:26;4.80;10.40
1476;DHT22;730;48.870;12.542;2023-02-01T09:24:52;4.80;9.70
1476;DHT22;730;48.870;12.542;2023-02-01T09:27:19;4.80;10.10
1476;DHT22;730;48.870;12.542;2023-02-01T09:29:45;4.80;9.90
1476;DHT22;730;48.870;12.542;2023-02-01T09:32:12;4.80;10.20
1476;DHT22;730;48.870;12.542;2023-02-01T09:34:38;4.80;9.90
1476;DHT22;730;48.870;12.542;2023-02-01T09:37:04;4.80;9.80
1476;DHT22;730;48.870;12.542;2023-02-01T09:39:30;4.90;10.90
1476;DHT22;730;48.870;12.542;2023-02-01T09:45:02;5.10;10.30
1476;DHT22;730;48.870;12.542;2023-02-01T09:47:32;5.20;9.30
1476;DHT22;730;48.870;12.542;2023-02-01T09:50:08;5.20;8.20
1476;DHT22;730;48.870;12.542;2023-02-01T09:52:42;5.30;7.00
1476;DHT22;730;48.870;12.542;2023-02-01T09:55:20;5.30;7.00
1476;DHT22;730;48.870;12.542;2023-02-01T09:58:00;5.20;7.00
1476;DHT22;730;48.870;12.542;2023-02-01T10:00:35;5.20;7.40
1476;DHT22;730;48.870;12.542;2023-02-01T10:03:01;5.20;6.30
1476;DHT22;730;48.870;12.542;2023-02-01T10:10:49;5.20;7.50
1476;DHT22;730;48.870;12.542;2023-02-01T10:16:17;5.30;7.30
1476;DHT22;730;48.870;12.542;2023-02-01T10:21:51;5.20;6.80
1476;DHT22;730;48.870;12.542;2023-02-01T10:24:52;5.30;6.90
1476;DHT22;730;48.870;12.542;2023-02-01T10:27:29;5.30;7.10
1476;DHT22;730;48.870;12.542;2023-02-01T10:30:01;5.30;7.70
1476;DHT22;730;48.870;12.542;2023-02-01T10:32:32;5.20;7.90
1476;DHT22;730;48.870;12.542;2023-02-01T10:35:18;5.30;8.20
1476;DHT22;730;48.870;12.542;2023-02-01T10:37:48;5.30;7.90
1476;DHT22;730;48.870;12.542;2023-02-01T10:42:45;5.30;8.10
1476;DHT22;730;48.870;12.542;2023-02-01T10:45:17;5.30;7.90
1476;DHT22;730;48.870;12.542;2023-02-01T10:47:43;5.40;7.10
1476;DHT22;730;48.870;12.542;2023-02-01T10:50:32;5.30;6.70
1476;DHT22;730;48.870;12.542;2023-02-01T10:58:19;5.40;5.40
1476;DHT22;730;48.870;12.542;2023-02-01T11:00:49;5.40;5.60
1476;DHT22;730;48.870;12.542;2023-02-01T11:06:12;5.50;4.20
1476;DHT22;730;48.870;12.542;2023-02-01T11:08:48;5.60;3.90
1476;DHT22;730;48.870;12.542;2023-02-01T11:11:14;5.60;4.00
1476;DHT22;730;48.870;12.542;2023-02-01T11:13:42;5.60;3.20
1476;DHT22;730;48.870;12.542;2023-02-01T11:16:13;5.60;4.40
1476;DHT22;730;48.870;12.542;2023-02-01T11:18:40;5.60;3.10
1476;DHT22;730;48.870;12.542;2023-02-01T11:21:08;5.60;2.90
1476;DHT22;730;48.870;12.542;2023-02-01T11:23:41;5.60;3.20
1476;DHT22;730;48.870;12.542;2023-02-01T11:26:15;5.60;2.80
1476;DHT22;730;48.870;12.542;2023-02-01T11:28:52;5.70;3.90
1476;DHT22;730;48.870;12.542;2023-02-01T11:31:19;5.70;2.90
1476;DHT22;730;48.870;12.542;2023-02-01T11:34:12;5.80;2.70
1476;DHT22;730;48.870;12.542;2023-02-01T11:36:39;5.80;2.70
1476;DHT22;730;48.870;12.542;2023-02-01T11:39:12;5.80;2.80
1476;DHT22;730;48.870;12.542;2023-02-01T11:45:15;5.80;1.00
1476;DHT22;730;48.870;12.542;2023-02-01T11:47:42;5.60;1.00
1476;DHT22;730;48.870;12.542;2023-02-01T11:50:50;5.40;1.00
1476;DHT22;730;48.870;12.542;2023-02-01T11:59:10;5.40;1.00
1476;DHT22;730;48.870;12.542;2023-02-01T12:15:34;5.60;1.40
1476;DHT22;730;48.870;12.542;2023-02-01T12:37:14;6.10;1.00
1476;DHT22;730;48.870;12.542;2023-02-01T12:40:00;6.10;1.00
1476;DHT22;730;48.870;12.542;2023-02-01T12:45:34;6.10;1.00
1476;DHT22;730;48.870;12.542;2023-02-01T12:48:40;6.20;1.00
1476;DHT22;730;48.870;12.542;2023-02-01T12:51:17;6.30;1.00
1476;DHT22;730;48.870;12.542;2023-02-01T12:53:54;6.30;1.00
1476;DHT22;730;48.870;12.542;2023-02-01T12:57:08;6.40;1.50
1476;DHT22;730;48.870;12.542;2023-02-01T12:59:22;6.40;1.00
1476;DHT22;730;48.870;12.542;2023-02-01T13:02:11;6.40;1.00
1476;DHT22;730;48.870;12.542;2023-02-01T13:05:00;6.40;1.00
1476;DHT22;730;48.870;12.542;2023-02-01T13:07:34;6.40;1.00
1476;DHT22;730;48.870;12.542;2023-02-01T13:10:33;6.40;1.00
1476;DHT22;730;48.870;12.542;2023-02-01T13:13:22;6.30;1.00
1476;DHT22;730;48.870;12.542;2023-02-01T13:15:57;6.30;1.00
1476;DHT22;730;48.870;12.542;2023-02-01T13:18:26;6.20;1.00
1476;DHT22;730;48.870;12.542;2023-02-01T13:21:10;6.00;1.70
1476;DHT22;730;48.870;12.542;2023-02-01T13:23:40;5.90;2.30
1476;DHT22;730;48.870;12.542;2023-02-01T13:26:06;5.80;2.50
1476;DHT22;730;48.870;12.542;2023-02-01T13:28:52;5.70;3.40
1476;DHT22;730;48.870;12.542;2023-02-01T13:34:28;5.50;5.00
1476;DHT22;730;48.870;12.542;2023-02-01T13:45:16;5.30;7.00
1476;DHT22;730;48.870;12.542;2023-02-01T13:47:46;5.20;6.60
1476;DHT22;730;48.870;12.542;2023-02-01T13:50:29;5.20;7.20
1476;DHT22;730;48.870;12.542;2023-02-01T13:52:58;5.20;7.40
1476;DHT22;730;48.870;12.542;2023-02-01T13:55:32;5.20;6.10
1476;DHT22;730;48.870;12.542;2023-02-01T13:58:03;5.20;6.40
1476;DHT22;730;48.870;12.542;2023-02-01T14:10:50;5.10;7.70
1476;DHT22;730;48.870;12.542;2023-02-01T14:13:36;5.20;7.20
1476;DHT22;730;48.870;12.542;2023-02-01T14:27:00;5.40;5.90
1476;DHT22;730;48.870;12.542;2023-02-01T14:29:33;5.40;5.60
1476;DHT22;730;48.870;12.542;2023-02-01T14:34:36;5.50;5.20
1476;DHT22;730;48.870;12.542;2023-02-01T14:47:52;5.50;1.50
1476;DHT22;730;48.870;12.542;2023-02-01T15:00:55;5.50;1.00
1476;DHT22;730;48.870;12.542;2023-02-01T15:03:41;5.50;1.00
1476;DHT22;730;48.870;12.542;2023-02-01T15:11:57;5.50;1.00
1476;DHT22;730;48.870;12.542;2023-02-01T15:14:24;5.50;1.00
1476;DHT22;730;48.870;12.542;2023-02-01T15:16:50;5.50;1.00
1476;DHT22;730;48.870;12.542;2023-02-01T15:19:27;5.50;1.00
1476;DHT22;730;48.870;12.542;2023-02-01T15:21:56;5.50;1.00
1476;DHT22;730;48.870;12.542;2023-02-01T15:24:27;5.50;1.00
1476;DHT22;730;48.870;12.542;2023-02-01T15:26:54;5.50;1.00
1476;DHT22;730;48.870;12.542;2023-02-01T15:29:22;5.50;1.00
1476;DHT22;730;48.870;12.542;2023-02-01T15:31:52;5.50;1.00
1476;DHT22;730;48.870;12.542;2023-02-01T15:34:19;5.50;1.00
1476;DHT22;730;48.870;12.542;2023-02-01T15:36:47;5.50;1.00
1476;DHT22;730;48.870;12.542;2023-02-01T15:39:25;5.50;1.00
1476;DHT22;730;48.870;12.542;2023-02-01T15:42:11;5.40;1.00
1476;DHT22;730;48.870;12.542;2023-02-01T15:44:43;5.50;1.00
1476;DHT22;730;48.870;12.542;2023-02-01T15:47:16;5.50;1.00
1476;DHT22;730;48.870;12.542;2023-02-01T15:49:45;5.50;1.00
1476;DHT22;730;48.870;12.542;2023-02-01T15:52:26;5.50;1.00
1476;DHT22;730;48.870;12.542;2023-02-01T15:54:59;5.50;1.00
1476;DHT22;730;48.870;12.542;2023-02-01T15:57:32;5.50;1.00
1476;DHT22;730;48.870;12.542;2023-02-01T16:00:27;5.50;1.00
1476;DHT22;730;48.870;12.542;2023-02-01T16:03:02;5.50;1.00
1476;DHT22;730;48.870;12.542;2023-02-01T16:05:37;5.50;1.00
1476;DHT22;730;48.870;12.542;2023-02-01T16:08:22;5.50;1.00
1476;DHT22;730;48.870;12.542;2023-02-01T16:10:53;5.50;1.00
1476;DHT22;730;48.870;12.542;2023-02-01T16:13:20;5.50;1.00
1476;DHT22;730;48.870;12.542;2023-02-01T16:15:47;5.50;1.00
1476;DHT22;730;48.870;12.542;2023-02-01T16:18:14;5.50;1.00
1476;DHT22;730;48.870;12.542;2023-02-01T16:20:42;5.50;1.00
1476;DHT22;730;48.870;12.542;2023-02-01T16:23:09;5.60;1.00
1476;DHT22;730;48.870;12.542;2023-02-01T16:25:37;5.50;1.00
1476;DHT22;730;48.870;12.542;2023-02-01T16:28:05;5.60;1.00
1476;DHT22;730;48.870;12.542;2023-02-01T16:30:31;5.60;1.00
1476;DHT22;730;48.870;12.542;2023-02-01T16:32:59;5.60;1.00
1476;DHT22;730;48.870;12.542;2023-02-01T16:35:36;5.60;1.00
1476;DHT22;730;48.870;12.542;2023-02-01T16:38:10;5.60;1.00
1476;DHT22;730;48.870;12.542;2023-02-01T16:40:42;5.60;1.00
1476;DHT22;730;48.870;12.542;2023-02-01T16:43:13;5.50;1.00
1476;DHT22;730;48.870;12.542;2023-02-01T16:45:40;5.60;1.00
1476;DHT22;730;48.870;12.542;2023-02-01T16:48:08;5.50;1.00
1476;DHT22;730;48.870;12.542;2023-02-01T16:50:34;5.50;1.00
1476;DHT22;730;48.870;12.542;2023-02-01T16:53:01;5.60;1.00
1476;DHT22;730;48.870;12.542;2023-02-01T16:55:27;5.60;1.00
1476;DHT22;730;48.870;12.542;2023-02-01T16:57:53;5.60;1.00
1476;DHT22;730;48.870;12.542;2023-02-01T17:00:19;5.60;1.00
1476;DHT22;730;48.870;12.542;2023-02-01T17:02:45;5.60;1.00
1476;DHT22;730;48.870;12.542;2023-02-01T17:05:11;5.60;1.00
1476;DHT22;730;48.870;12.542;2023-02-01T17:07:38;5.60;1.00
1476;DHT22;730;48.870;12.542;2023-02-01T17:10:18;5.70;1.00
1476;DHT22;730;48.870;12.542;2023-02-01T17:12:46;5.60;1.00
1476;DHT22;730;48.870;12.542;2023-02-01T17:15:12;5.60;1.00
1476;DHT22;730;48.870;12.542;2023-02-01T17:17:38;5.60;1.00
1476;DHT22;730;48.870;12.542;2023-02-01T17:20:20;5.60;1.00
1476;DHT22;730;48.870;12.542;2023-02-01T17:22:47;5.60;1.00
1476;DHT22;730;48.870;12.542;2023-02-01T17:25:18;5.60;1.00
1476;DHT22;730;48.870;12.542;2023-02-01T17:27:44;5.60;1.00
1476;DHT22;730;48.870;12.542;2023-02-01T17:30:12;5.60;1.00
1476;DHT22;730;48.870;12.542;2023-02-01T17:32:41;5.60;1.00
1476;DHT22;730;48.870;12.542;2023-02-01T17:35:20;5.60;1.00
1476;DHT22;730;48.870;12.542;2023-02-01T17:37:46;5.60;1.00
1476;DHT22;730;48.870;12.542;2023-02-01T17:40:12;5.60;1.00
1476;DHT22;730;48.870;12.542;2023-02-01T17:42:39;5.60;1.00
1476;DHT22;730;48.870;12.542;2023-02-01T17:45:16;5.60;1.00
1476;DHT22;730;48.870;12.542;2023-02-01T17:47:44;5.60;1.00
1476;DHT22;730;48.870;12.542;2023-02-01T17:50:12;5.60;1.00
1476;DHT22;730;48.870;12.542;2023-02-01T17:52:38;5.60;1.00
1476;DHT22;730;48.870;12.542;2023-02-01T17:55:16;5.60;1.00
1476;DHT22;730;48.870;12.542;2023-02-01T17:57:42;5.60;1.00
1476;DHT22;730;48.870;12.542;2023-02-01T18:00:09;5.60;1.00
1476;DHT22;730;48.870;12.542;2023-02-01T18:02:35;5.60;1.00
1476;DHT22;730;48.870;12.542;2023-02-01T18:05:01;5.50;1.00
1476;DHT22;730;48.870;12.542;2023-02-01T18:07:27;5.50;1.00
1476;DHT22;730;48.870;12.542;2023-02-01T18:09:53;5.60;1.00
1476;DHT22;730;48.870;12.542;2023-02-01T18:12:24;5.60;1.00
1476;DHT22;730;48.870;12.542;2023-02-01T18:14:52;5.60;1.00
1476;DHT22;730;48.870;12.542;2023-02-01T18:17:18;5.60;1.00
1476;DHT22;730;48.870;12.542;2023-02-01T18:19:44;5.60;1.00
1476;DHT22;730;48.870;12.542;2023-02-01T18:22:19;5.60;1.00
1476;DHT22;730;48.870;12.542;2023-02-01T18:24:46;5.60;1.00
1476;DHT22;730;48.870;12.542;2023-02-01T18:27:12;5.70;1.00
1476;DHT22;730;48.870;12.542;2023-02-01T18:29:38;5.70;1.00
1476;DHT22;730;48.870;12.542;2023-02-01T18:32:05;5.70;1.00
1476;DHT22;730;48.870;12.542;2023-02-01T18:34:31;5.70;1.00
1476;DHT22;730;48.870;12.542;2023-02-01T18:36:57;5.70;1.00
1476;DHT22;730;48.870;12.542;2023-02-01T18:39:23;5.70;1.00
1476;DHT22;730;48.870;12.542;2023-02-01T18:41:49;5.70;1.00
1476;DHT22;730;48.870;12.542;2023-02-01T18:44:16;5.70;1.00
1476;DHT22;730;48.870;12.542;2023-02-01T18:46:43;5.70;1.00
1476;DHT22;730;48.870;12.542;2023-02-01T18:49:09;5.70;1.00
1476;DHT22;730;48.870;12.542;2023-02-01T18:51:38;5.70;1.00
1476;DHT22;730;48.870;12.542;2023-02-01T18:54:04;5.70;1.00
1476;DHT22;730;48.870;12.542;2023-02-01T18:56:30;5.70;1.00
1476;DHT22;730;48.870;12.542;2023-02-01T18:58:56;5.70;1.00
1476;DHT22;730;48.870;12.542;2023-02-01T19:01:24;5.70;1.00
1476;DHT22;730;48.870;12.542;2023-02-01T19:03:50;5.70;1.00
1476;DHT22;730;48.870;12.542;2023-02-01T19:06:17;5.80;1.00
1476;DHT22;730;48.870;12.542;2023-02-01T19:08:46;5.70;1.00
1476;DHT22;730;48.870;12.542;2023-02-01T19:11:12;5.80;1.00
1476;DHT22;730;48.870;12.542;2023-02-01T19:13:39;5.80;1.00
1476;DHT22;730;48.870;12.542;2023-02-01T19:16:10;5.80;1.00
1476;DHT22;730;48.870;12.542;2023-02-01T19:18:36;5.70;1.00
1476;DHT22;730;48.870;12.542;2023-02-01T19:21:04;5.80;1.00
1476;DHT22;730;48.870;12.542;2023-02-01T19:23:30;5.80;1.00
1476;DHT22;730;48.870;12.542;2023-02-01T19:25:56;5.80;1.00
1476;DHT22;730;48.870;12.542;2023-02-01T19:28:22;5.80;1.00
1476;DHT22;730;48.870;12.542;2023-02-01T19:30:48;5.90;1.00
1476;DHT22;730;48.870;12.542;2023-02-01T19:33:16;5.80;1.00
1476;DHT22;730;48.870;12.542;2023-02-01T19:35:45;5.90;1.00